createdAt,value
2018-05-02T00:02:14.879Z,57.20
2018-05-02T00:06:17.515Z,57.10
2018-05-02T00:10:20.913Z,56.10
2018-05-02T00:14:23.614Z,56.10
2018-05-02T00:18:26.981Z,56.60
2018-05-02T00:22:29.625Z,55.80
2018-05-02T00:26:32.317Z,56.00
2018-05-02T00:30:34.948Z,56.40
2018-05-02T00:34:37.572Z,56.40
2018-05-02T00:38:40.272Z,56.20
2018-05-02T00:42:42.954Z,56.40
2018-05-02T00:46:46.339Z,57.80
2018-05-02T00:50:48.974Z,57.10
2018-05-02T00:54:51.600Z,57.00
2018-05-02T00:58:54.205Z,56.80
2018-05-02T01:02:56.836Z,57.10
2018-05-02T01:06:59.473Z,57.20
2018-05-02T01:11:02.103Z,57.10
2018-05-02T01:15:04.727Z,57.00
2018-05-02T01:19:08.208Z,57.90
2018-05-02T01:23:10.908Z,57.60
2018-05-02T01:27:13.605Z,58.10
2018-05-02T01:31:16.288Z,57.70
2018-05-02T01:35:18.886Z,58.00
2018-05-02T01:39:21.543Z,58.30
2018-05-02T01:43:24.168Z,58.40
2018-05-02T01:47:26.812Z,58.50
2018-05-02T01:51:29.481Z,58.40
2018-05-02T01:55:32.849Z,58.70
2018-05-02T01:59:35.488Z,58.60
2018-05-02T02:03:38.891Z,58.00
2018-05-02T02:07:42.345Z,58.20
2018-05-02T02:11:45.039Z,58.10
2018-05-02T02:15:47.705Z,58.60
2018-05-02T02:19:50.484Z,59.10
2018-05-02T02:23:53.111Z,58.30
2018-05-02T02:27:56.553Z,58.40
2018-05-02T02:31:59.953Z,58.30
2018-05-02T02:36:03.329Z,58.40
2018-05-02T02:40:05.964Z,58.30
2018-05-02T02:44:08.601Z,58.30
2018-05-02T02:48:11.231Z,58.70
2018-05-02T02:52:14.637Z,58.60
2018-05-02T02:56:18.004Z,58.80
2018-05-02T03:00:20.688Z,58.70
2018-05-02T03:04:23.325Z,58.80
2018-05-02T03:08:26.774Z,58.90
2018-05-02T03:12:29.438Z,58.80
2018-05-02T03:16:32.089Z,58.70
2018-05-02T03:20:34.788Z,59.10
2018-05-02T03:24:38.192Z,59.70
2018-05-02T03:28:40.824Z,59.70
2018-05-02T03:32:43.424Z,59.60
2018-05-02T03:36:46.060Z,59.70
2018-05-02T03:40:49.515Z,59.70
2018-05-02T03:44:52.160Z,59.70
2018-05-02T03:48:54.817Z,59.50
2018-05-02T03:52:57.424Z,59.10
2018-05-02T03:57:00.059Z,60.50
2018-05-02T04:01:14.583Z,60.60
2018-05-02T04:05:29.821Z,59.70
2018-05-02T04:09:32.457Z,59.70
2018-05-02T04:13:35.878Z,59.40
2018-05-02T04:17:38.508Z,59.00
2018-05-02T04:21:41.180Z,59.60
2018-05-02T04:25:43.869Z,60.90
2018-05-02T04:29:47.240Z,60.00
2018-05-02T04:33:50.643Z,60.30
2018-05-02T04:37:54.049Z,61.00
2018-05-02T04:41:57.444Z,62.10
2018-05-02T04:46:00.072Z,62.00
2018-05-02T04:50:02.672Z,61.50
2018-05-02T04:54:05.343Z,61.20
2018-05-02T04:58:07.980Z,60.10
2018-05-02T05:02:10.607Z,62.00
2018-05-02T05:06:14.004Z,61.10
2018-05-02T05:10:17.372Z,61.10
2018-05-02T05:14:20.004Z,61.00
2018-05-02T05:18:22.777Z,61.60
2018-05-02T05:22:25.408Z,63.60
2018-05-02T05:26:28.012Z,64.90
2018-05-02T05:30:30.664Z,62.80
2018-05-02T05:34:33.292Z,62.70
2018-05-02T05:38:35.929Z,62.40
2018-05-02T05:42:39.327Z,65.60
2018-05-02T05:46:42.696Z,65.30
2018-05-02T05:50:45.500Z,63.20
2018-05-02T05:54:49.959Z,62.70
2018-05-02T05:58:52.679Z,64.50
2018-05-02T06:02:55.354Z,63.90
2018-05-02T06:06:57.984Z,64.10
2018-05-02T06:11:00.612Z,65.10
2018-05-02T06:15:04.008Z,66.00
2018-05-02T06:19:06.646Z,65.90
2018-05-02T06:23:09.279Z,65.90
2018-05-02T06:27:12.756Z,69.50
2018-05-02T06:31:15.472Z,65.50
2018-05-02T06:35:18.106Z,67.20
2018-05-02T06:39:20.877Z,68.70
2018-05-02T06:43:23.483Z,71.60
2018-05-02T06:47:26.855Z,66.30
2018-05-02T06:51:29.489Z,66.10
2018-05-02T06:55:32.125Z,62.20
2018-05-02T06:59:34.763Z,61.20
2018-05-02T07:03:37.403Z,58.40
2018-05-02T07:07:40.036Z,57.60
2018-05-02T07:11:42.680Z,55.90
2018-05-02T07:15:45.315Z,55.50
2018-05-02T07:19:47.945Z,55.30
2018-05-02T07:23:50.555Z,54.30
2018-05-02T07:27:53.179Z,54.30
2018-05-02T07:31:55.811Z,53.10
2018-05-02T07:35:58.435Z,53.40
2018-05-02T07:40:01.830Z,50.10
2018-05-02T07:44:05.189Z,50.60
2018-05-02T07:48:07.855Z,50.50
2018-05-02T07:52:10.638Z,44.90
2018-05-02T07:56:13.283Z,45.30
2018-05-02T08:00:15.983Z,46.90
2018-05-02T08:04:18.597Z,49.50
2018-05-02T08:08:22.031Z,47.60
2018-05-02T08:12:24.719Z,47.60
2018-05-02T08:16:27.394Z,47.10
2018-05-02T08:20:30.046Z,46.40
2018-05-02T08:24:32.680Z,45.50
2018-05-02T08:28:35.316Z,41.60
2018-05-02T08:32:37.952Z,43.20
2018-05-02T08:36:40.589Z,42.40
2018-05-02T08:40:43.187Z,42.10
2018-05-02T08:44:45.848Z,41.30
2018-05-02T08:48:49.271Z,40.60
2018-05-02T08:52:51.903Z,40.70
2018-05-02T08:56:54.538Z,41.80
2018-05-02T09:00:57.300Z,45.20
2018-05-02T09:05:00.427Z,43.00
2018-05-02T09:09:03.093Z,43.40
2018-05-02T09:13:05.736Z,45.70
2018-05-02T09:17:08.460Z,46.80
2018-05-02T09:21:11.072Z,47.70
2018-05-02T09:25:13.825Z,48.00
2018-05-02T09:29:16.459Z,48.00
2018-05-02T09:33:19.088Z,48.80
2018-05-02T09:37:21.721Z,48.40
2018-05-02T09:41:24.320Z,49.30
2018-05-02T09:45:27.012Z,49.10
2018-05-02T09:49:29.663Z,46.80
2018-05-02T09:53:32.356Z,49.30
2018-05-02T09:57:34.987Z,49.10
2018-05-02T10:01:37.590Z,49.30
2018-05-02T10:05:40.993Z,50.30
2018-05-02T10:09:43.624Z,50.30
2018-05-02T10:13:46.260Z,49.80
2018-05-02T10:17:48.895Z,49.90
2018-05-02T10:21:51.504Z,50.10
2018-05-02T10:25:54.140Z,49.10
2018-05-02T10:29:57.548Z,49.40
2018-05-02T10:34:00.947Z,48.90
2018-05-02T10:38:04.348Z,49.10
2018-05-02T10:42:06.968Z,49.10
2018-05-02T10:46:09.668Z,49.30
2018-05-02T10:50:12.325Z,49.30
2018-05-02T10:54:15.734Z,48.20
2018-05-02T10:58:19.136Z,49.20
2018-05-02T11:02:22.512Z,49.70
2018-05-02T11:06:25.232Z,49.60
2018-05-02T11:10:27.886Z,49.00
2018-05-02T11:14:30.526Z,48.30
2018-05-02T11:18:33.170Z,47.60
2018-05-02T11:22:35.793Z,48.30
2018-05-02T11:26:39.244Z,46.70
2018-05-02T11:30:41.893Z,46.70
2018-05-02T11:34:44.579Z,46.40
2018-05-02T11:38:47.967Z,47.70
2018-05-02T11:42:50.572Z,47.70
2018-05-02T11:46:54.019Z,48.10
2018-05-02T11:50:56.660Z,47.50
2018-05-02T11:55:00.112Z,45.90
2018-05-02T11:59:02.735Z,45.90
2018-05-02T12:03:05.340Z,47.30
2018-05-02T12:07:08.739Z,47.10
2018-05-02T12:11:11.372Z,47.70
2018-05-02T12:15:14.012Z,48.20
2018-05-02T12:19:16.679Z,49.20
2018-05-02T12:23:19.280Z,49.10
2018-05-02T12:27:21.981Z,48.20
2018-05-02T12:31:24.619Z,47.30
2018-05-02T12:35:27.308Z,48.10
2018-05-02T12:39:30.677Z,49.40
2018-05-02T12:43:34.048Z,46.70
2018-05-02T12:47:36.689Z,46.70
2018-05-02T12:51:39.324Z,48.90
2018-05-02T12:55:42.065Z,47.50
2018-05-02T12:59:44.699Z,47.60
2018-05-02T13:03:47.315Z,48.70
2018-05-02T13:07:50.712Z,47.60
2018-05-02T13:11:53.350Z,47.60
2018-05-02T13:15:55.992Z,47.20
2018-05-02T13:19:58.665Z,47.80
2018-05-02T13:24:01.266Z,47.70
2018-05-02T13:28:03.939Z,47.80
2018-05-02T13:32:06.580Z,48.00
2018-05-02T13:36:09.219Z,47.40
2018-05-02T13:40:11.912Z,46.50
2018-05-02T13:44:14.573Z,48.00
2018-05-02T13:48:17.204Z,44.70
2018-05-02T13:52:19.844Z,46.00
2018-05-02T13:56:22.482Z,47.30
2018-05-02T14:00:26.457Z,47.90
2018-05-02T14:04:29.066Z,47.90
2018-05-02T14:08:31.722Z,48.20
2018-05-02T14:12:34.424Z,47.30
2018-05-02T14:16:37.060Z,45.60
2018-05-02T14:20:40.456Z,45.00
2018-05-02T14:24:43.339Z,44.90
2018-05-02T14:28:45.961Z,46.20
2018-05-02T14:32:48.621Z,45.30
2018-05-02T14:36:51.257Z,46.10
2018-05-02T14:40:53.888Z,45.00
2018-05-02T14:44:56.548Z,47.40
2018-05-02T14:48:59.230Z,47.10
2018-05-02T14:53:01.869Z,46.00
2018-05-02T14:57:05.276Z,46.10
2018-05-02T15:01:08.644Z,46.80
2018-05-02T15:05:11.287Z,46.80
2018-05-02T15:09:13.923Z,44.90
2018-05-02T15:13:16.560Z,46.50
2018-05-02T15:17:19.977Z,46.70
2018-05-02T15:21:22.584Z,46.70
2018-05-02T15:25:25.216Z,47.70
2018-05-02T15:29:27.851Z,46.60
2018-05-02T15:33:30.483Z,46.60
2018-05-02T15:37:33.144Z,47.00
2018-05-02T15:41:35.785Z,47.10
2018-05-02T15:45:39.189Z,48.30
2018-05-02T15:49:42.651Z,47.80
2018-05-02T15:53:45.300Z,47.80
2018-05-02T15:57:47.902Z,47.70
2018-05-02T16:01:50.532Z,47.90
2018-05-02T16:05:53.975Z,47.90
2018-05-02T16:09:57.386Z,48.60
2018-05-02T16:14:00.752Z,48.50
2018-05-02T16:18:03.399Z,48.50
2018-05-02T16:22:06.135Z,48.50
2018-05-02T16:26:08.760Z,48.00
2018-05-02T16:30:11.394Z,48.50
2018-05-02T16:34:14.047Z,48.00
2018-05-02T16:38:16.689Z,48.80
2018-05-02T16:42:19.321Z,49.00
2018-05-02T16:46:21.947Z,48.50
2018-05-02T16:50:24.593Z,49.00
2018-05-02T16:54:27.248Z,49.30
2018-05-02T16:58:29.880Z,49.30
2018-05-02T17:02:32.512Z,49.40
2018-05-02T17:06:35.148Z,49.50
2018-05-02T17:10:37.779Z,49.90
2018-05-02T17:14:40.413Z,49.90
2018-05-02T17:18:43.065Z,50.20
2018-05-02T17:22:45.703Z,50.20
2018-05-02T17:26:48.332Z,50.50
2018-05-02T17:30:51.792Z,50.80
2018-05-02T17:34:54.432Z,50.80
2018-05-02T17:38:57.075Z,50.80
2018-05-02T17:42:59.704Z,51.00
2018-05-02T17:47:02.357Z,51.10
2018-05-02T17:51:04.963Z,51.00
2018-05-02T17:55:07.592Z,51.10
2018-05-02T17:59:10.280Z,51.10
2018-05-02T18:03:12.909Z,51.30
2018-05-02T18:07:15.544Z,51.40
2018-05-02T18:11:18.139Z,51.50
2018-05-02T18:15:20.772Z,51.60
2018-05-02T18:19:23.419Z,51.60
2018-05-02T18:23:26.105Z,51.90
2018-05-02T18:27:28.703Z,51.80
2018-05-02T18:31:32.160Z,51.80
2018-05-02T18:35:34.788Z,51.80
2018-05-02T18:39:37.421Z,51.90
2018-05-02T18:43:40.053Z,51.90
2018-05-02T18:47:43.447Z,52.00
2018-05-02T18:51:46.076Z,51.90
2018-05-02T18:55:49.484Z,52.00
2018-05-02T18:59:52.875Z,52.20
2018-05-02T19:03:55.623Z,52.20
2018-05-02T19:07:58.953Z,52.00
2018-05-02T19:12:02.376Z,52.20
2018-05-02T19:16:05.786Z,52.00
2018-05-02T19:20:14.988Z,52.10
2018-05-02T19:24:17.617Z,51.90
2018-05-02T19:28:21.044Z,52.50
2018-05-02T19:32:30.048Z,51.90
2018-05-02T19:36:32.741Z,51.90
2018-05-02T19:40:40.965Z,52.00
2018-05-02T19:44:43.601Z,52.10
2018-05-02T19:48:46.964Z,52.00
2018-05-02T19:52:50.369Z,52.20
2018-05-02T19:56:53.778Z,52.10
2018-05-02T20:01:02.706Z,52.10
2018-05-02T20:05:05.339Z,52.10
2018-05-02T20:09:13.571Z,52.60
2018-05-02T20:13:22.036Z,52.10
2018-05-02T20:17:24.724Z,52.20
2018-05-02T20:21:27.351Z,52.20
2018-05-02T20:25:29.979Z,52.10
2018-05-02T20:29:32.595Z,52.30
2018-05-02T20:33:35.285Z,52.20
2018-05-02T20:37:38.747Z,52.50
2018-05-02T20:41:41.413Z,52.40
2018-05-02T20:45:44.052Z,52.90
2018-05-02T20:49:46.651Z,52.90
2018-05-02T20:53:49.337Z,53.20
2018-05-02T20:57:51.965Z,53.20
2018-05-02T21:01:54.600Z,54.00
2018-05-02T21:05:57.263Z,53.30
2018-05-02T21:09:59.884Z,53.40
2018-05-02T21:14:02.520Z,53.50
2018-05-02T21:18:05.193Z,53.70
2018-05-02T21:22:08.585Z,53.80
2018-05-02T21:26:11.948Z,54.10
2018-05-02T21:30:14.632Z,54.10
2018-05-02T21:34:17.321Z,54.30
2018-05-02T21:38:19.956Z,53.40
2018-05-02T21:42:23.361Z,54.70
2018-05-02T21:46:26.784Z,54.50
2018-05-02T21:50:29.472Z,54.50
2018-05-02T21:54:32.875Z,54.30
2018-05-02T21:58:36.272Z,54.20
2018-05-02T22:02:39.635Z,54.60
2018-05-02T22:06:42.263Z,54.60
2018-05-02T22:10:45.672Z,54.40
2018-05-02T22:14:49.072Z,54.70
2018-05-02T22:18:52.540Z,54.60
2018-05-02T22:22:55.141Z,54.50
2018-05-02T22:26:57.828Z,54.60
2018-05-02T22:31:00.470Z,54.30
2018-05-02T22:35:03.104Z,54.50
2018-05-02T22:39:05.715Z,54.20
2018-05-02T22:43:08.348Z,54.10
2018-05-02T22:47:10.974Z,53.90
2018-05-02T22:51:13.605Z,54.10
2018-05-02T22:55:16.240Z,54.00
2018-05-02T22:59:18.848Z,54.10
2018-05-02T23:03:21.479Z,54.30
2018-05-02T23:07:24.169Z,54.70
2018-05-02T23:11:26.803Z,55.20
2018-05-02T23:15:29.456Z,55.70
2018-05-02T23:19:32.150Z,55.20
2018-05-02T23:23:34.783Z,55.40
2018-05-02T23:27:37.424Z,55.50
2018-05-02T23:31:40.060Z,54.90
2018-05-02T23:35:42.676Z,55.20
2018-05-02T23:39:45.311Z,55.10
2018-05-02T23:43:47.959Z,54.60
2018-05-02T23:47:50.601Z,54.80
2018-05-02T23:51:53.245Z,54.40
2018-05-02T23:55:55.918Z,54.50
2018-05-02T23:59:58.560Z,55.00
